Terminal Aerodrome Forecast
Issued by NWS

Home | Current Version | Previous Version | Text Only | Print | Product List | Glossary On
Versions: 1 2 3 4 5 6 7 8 9 10 11 12 13 14 15 16 17 18 19 20 21 22 23 24 25 26 27 28 29 30 31 32 33 34 35 36 37 38
000
FTUS44 KOHX 170520
TAFMQY
TAF
KMQY 170520Z 1706/1806 17004KT P6SM OVC035
     FM171200 17005KT P6SM VCSH OVC025
     FM171400 19006G16KT 2SM -RA OVC007=

USA.gov is the U.S. government's official web portal to all federal, state and local government web resources and services.